sensor_id;sensor_type;location;lat;lon;timestamp;pressure;altitude;pressure_sealevel;temperature;humidity
42433;BME280;28071;48.232;20.668;2023-08-21T00:01:30;99992.06;;;20.36;100.00
42433;BME280;28071;48.232;20.668;2023-08-21T00:06:31;99959.66;;;20.16;100.00
42433;BME280;28071;48.232;20.668;2023-08-21T00:11:31;99996.97;;;20.49;100.00
42433;BME280;28071;48.232;20.668;2023-08-21T00:16:32;99989.66;;;20.50;100.00
42433;BME280;28071;48.232;20.668;2023-08-21T00:21:32;100007.50;;;20.41;100.00
42433;BME280;28071;48.232;20.668;2023-08-21T00:26:33;100010.72;;;20.38;100.00
42433;BME280;28071;48.232;20.668;2023-08-21T00:31:33;99996.41;;;20.37;100.00
42433;BME280;28071;48.232;20.668;2023-08-21T00:36:33;100000.44;;;20.14;100.00
42433;BME280;28071;48.232;20.668;2023-08-21T00:41:34;99990.19;;;20.16;100.00
42433;BME280;28071;48.232;20.668;2023-08-21T00:46:34;100008.81;;;20.13;100.00
42433;BME280;28071;48.232;20.668;2023-08-21T00:51:35;100009.38;;;20.15;100.00
42433;BME280;28071;48.232;20.668;2023-08-21T00:56:35;100018.56;;;20.19;100.00
42433;BME280;28071;48.232;20.668;2023-08-21T01:01:37;100023.97;;;20.19;100.00
42433;BME280;28071;48.232;20.668;2023-08-21T01:06:37;100027.72;;;20.13;100.00
42433;BME280;28071;48.232;20.668;2023-08-21T01:11:47;100004.22;;;19.98;100.00
42433;BME280;28071;48.232;20.668;2023-08-21T01:16:53;100019.88;;;19.96;100.00
42433;BME280;28071;48.232;20.668;2023-08-21T01:21:56;100030.69;;;20.06;100.00
42433;BME280;28071;48.232;20.668;2023-08-21T01:26:56;100034.47;;;20.00;100.00
42433;BME280;28071;48.232;20.668;2023-08-21T01:32:23;100030.69;;;20.01;100.00
42433;BME280;28071;48.232;20.668;2023-08-21T01:37:28;100040.91;;;19.94;100.00
42433;BME280;28071;48.232;20.668;2023-08-21T01:42:29;100034.16;;;19.81;100.00
42433;BME280;28071;48.232;20.668;2023-08-21T01:47:29;100033.88;;;19.78;100.00
42433;BME280;28071;48.232;20.668;2023-08-21T01:52:29;100043.59;;;19.74;100.00
42433;BME280;28071;48.232;20.668;2023-08-21T01:57:30;100037.38;;;19.73;100.00
42433;BME280;28071;48.232;20.668;2023-08-21T02:02:30;100032.75;;;19.63;100.00
42433;BME280;28071;48.232;20.668;2023-08-21T02:07:31;100024.91;;;19.57;100.00
42433;BME280;28071;48.232;20.668;2023-08-21T02:12:31;100039.69;;;19.49;100.00
42433;BME280;28071;48.232;20.668;2023-08-21T02:17:32;100030.72;;;19.33;100.00
42433;BME280;28071;48.232;20.668;2023-08-21T02:22:32;100027.53;;;19.47;100.00
42433;BME280;28071;48.232;20.668;2023-08-21T02:27:32;100026.47;;;19.48;100.00
42433;BME280;28071;48.232;20.668;2023-08-21T02:32:33;100029.25;;;19.58;100.00
42433;BME280;28071;48.232;20.668;2023-08-21T02:37:34;100029.97;;;19.43;100.00
42433;BME280;28071;48.232;20.668;2023-08-21T02:42:38;100024.75;;;19.26;100.00
42433;BME280;28071;48.232;20.668;2023-08-21T02:47:40;100029.56;;;19.19;100.00
42433;BME280;28071;48.232;20.668;2023-08-21T02:52:41;100026.66;;;19.21;100.00
42433;BME280;28071;48.232;20.668;2023-08-21T02:57:41;100014.66;;;19.01;100.00
42433;BME280;28071;48.232;20.668;2023-08-21T03:02:42;100023.69;;;19.22;100.00
42433;BME280;28071;48.232;20.668;2023-08-21T03:07:42;100016.09;;;19.14;100.00
42433;BME280;28071;48.232;20.668;2023-08-21T03:12:43;100018.81;;;19.24;100.00
42433;BME280;28071;48.232;20.668;2023-08-21T03:17:43;100019.63;;;19.20;100.00
42433;BME280;28071;48.232;20.668;2023-08-21T03:22:43;100023.59;;;19.07;100.00
42433;BME280;28071;48.232;20.668;2023-08-21T03:27:44;100019.78;;;18.98;100.00
42433;BME280;28071;48.232;20.668;2023-08-21T03:32:49;100029.19;;;18.95;100.00
42433;BME280;28071;48.232;20.668;2023-08-21T03:37:49;100027.22;;;18.80;100.00
42433;BME280;28071;48.232;20.668;2023-08-21T03:42:50;100014.22;;;18.72;100.00
42433;BME280;28071;48.232;20.668;2023-08-21T03:47:50;100026.34;;;18.70;100.00
42433;BME280;28071;48.232;20.668;2023-08-21T03:52:50;100028.50;;;18.73;100.00
42433;BME280;28071;48.232;20.668;2023-08-21T03:57:51;100029.31;;;18.68;100.00
42433;BME280;28071;48.232;20.668;2023-08-21T04:02:51;100023.09;;;18.68;100.00
42433;BME280;28071;48.232;20.668;2023-08-21T04:07:51;100028.00;;;18.76;100.00
42433;BME280;28071;48.232;20.668;2023-08-21T04:12:52;100015.63;;;18.80;100.00
42433;BME280;28071;48.232;20.668;2023-08-21T04:17:52;100014.59;;;18.86;100.00
42433;BME280;28071;48.232;20.668;2023-08-21T04:22:53;100033.84;;;19.10;100.00
42433;BME280;28071;48.232;20.668;2023-08-21T04:27:53;100040.13;;;19.26;100.00
42433;BME280;28071;48.232;20.668;2023-08-21T04:32:54;100016.38;;;19.12;100.00
42433;BME280;28071;48.232;20.668;2023-08-21T04:37:55;100032.34;;;19.29;100.00
42433;BME280;28071;48.232;20.668;2023-08-21T04:42:55;100037.25;;;19.48;100.00
42433;BME280;28071;48.232;20.668;2023-08-21T04:47:55;100038.97;;;19.59;100.00
42433;BME280;28071;48.232;20.668;2023-08-21T04:52:56;100040.59;;;19.70;100.00
42433;BME280;28071;48.232;20.668;2023-08-21T04:57:56;100043.25;;;21.43;100.00
42433;BME280;28071;48.232;20.668;2023-08-21T05:02:57;100057.13;;;22.30;100.00
42433;BME280;28071;48.232;20.668;2023-08-21T05:07:57;100050.59;;;22.65;100.00
42433;BME280;28071;48.232;20.668;2023-08-21T05:12:58;100073.41;;;23.17;100.00
42433;BME280;28071;48.232;20.668;2023-08-21T05:17:58;100071.22;;;23.19;100.00
42433;BME280;28071;48.232;20.668;2023-08-21T05:22:58;100048.19;;;23.17;100.00
42433;BME280;28071;48.232;20.668;2023-08-21T05:27:59;100066.38;;;23.40;100.00
42433;BME280;28071;48.232;20.668;2023-08-21T05:32:59;100066.97;;;23.61;100.00
42433;BME280;28071;48.232;20.668;2023-08-21T05:37:59;100068.16;;;23.74;100.00
42433;BME280;28071;48.232;20.668;2023-08-21T05:43:00;100057.22;;;23.79;100.00
42433;BME280;28071;48.232;20.668;2023-08-21T05:48:00;100076.53;;;24.15;100.00
42433;BME280;28071;48.232;20.668;2023-08-21T05:53:01;100073.56;;;24.30;100.00
42433;BME280;28071;48.232;20.668;2023-08-21T05:58:02;100079.97;;;24.02;100.00
42433;BME280;28071;48.232;20.668;2023-08-21T06:03:02;100069.22;;;24.34;100.00
42433;BME280;28071;48.232;20.668;2023-08-21T06:08:03;100066.25;;;24.50;100.00
42433;BME280;28071;48.232;20.668;2023-08-21T06:13:03;100085.75;;;24.84;100.00
42433;BME280;28071;48.232;20.668;2023-08-21T06:18:04;100088.59;;;24.93;100.00
42433;BME280;28071;48.232;20.668;2023-08-21T06:23:05;100102.88;;;25.04;100.00
42433;BME280;28071;48.232;20.668;2023-08-21T06:28:06;100095.13;;;25.11;100.00
42433;BME280;28071;48.232;20.668;2023-08-21T06:33:06;100088.38;;;25.36;100.00
42433;BME280;28071;48.232;20.668;2023-08-21T06:38:07;100093.09;;;25.44;100.00
42433;BME280;28071;48.232;20.668;2023-08-21T06:43:07;100099.97;;;25.55;100.00
42433;BME280;28071;48.232;20.668;2023-08-21T06:48:08;100084.94;;;25.58;100.00
42433;BME280;28071;48.232;20.668;2023-08-21T06:53:08;100093.53;;;25.79;100.00
42433;BME280;28071;48.232;20.668;2023-08-21T06:58:09;100088.47;;;25.86;100.00
42433;BME280;28071;48.232;20.668;2023-08-21T07:03:09;100092.03;;;26.09;100.00
42433;BME280;28071;48.232;20.668;2023-08-21T07:08:09;100096.81;;;26.39;100.00
42433;BME280;28071;48.232;20.668;2023-08-21T07:13:10;100098.22;;;26.59;100.00
42433;BME280;28071;48.232;20.668;2023-08-21T07:18:10;100106.16;;;26.69;100.00
42433;BME280;28071;48.232;20.668;2023-08-21T07:23:11;100090.81;;;26.82;100.00
42433;BME280;28071;48.232;20.668;2023-08-21T07:28:11;100099.34;;;27.12;100.00
42433;BME280;28071;48.232;20.668;2023-08-21T07:33:11;100095.56;;;27.21;100.00
42433;BME280;28071;48.232;20.668;2023-08-21T07:38:12;100092.41;;;27.36;100.00
42433;BME280;28071;48.232;20.668;2023-08-21T07:43:12;100115.59;;;27.56;100.00
42433;BME280;28071;48.232;20.668;2023-08-21T07:48:13;100117.16;;;27.97;98.70
42433;BME280;28071;48.232;20.668;2023-08-21T07:53:13;100112.50;;;27.98;95.70
42433;BME280;28071;48.232;20.668;2023-08-21T07:58:13;100078.56;;;27.81;97.27
42433;BME280;28071;48.232;20.668;2023-08-21T08:03:14;100114.44;;;28.06;98.72
42433;BME280;28071;48.232;20.668;2023-08-21T08:08:16;100084.19;;;28.19;96.15
42433;BME280;28071;48.232;20.668;2023-08-21T08:13:18;100103.03;;;28.64;92.00
42433;BME280;28071;48.232;20.668;2023-08-21T08:18:19;100111.03;;;28.78;92.57
42433;BME280;28071;48.232;20.668;2023-08-21T08:23:20;100116.78;;;29.11;87.63
42433;BME280;28071;48.232;20.668;2023-08-21T08:28:20;100113.97;;;29.28;85.40
42433;BME280;28071;48.232;20.668;2023-08-21T08:33:21;100096.78;;;29.49;86.55
42433;BME280;28071;48.232;20.668;2023-08-21T08:38:21;100126.91;;;29.87;84.43
42433;BME280;28071;48.232;20.668;2023-08-21T08:43:24;100112.00;;;29.97;77.56
42433;BME280;28071;48.232;20.668;2023-08-21T08:48:25;100109.25;;;30.92;68.74
42433;BME280;28071;48.232;20.668;2023-08-21T08:53:27;100113.44;;;31.35;66.86
42433;BME280;28071;48.232;20.668;2023-08-21T08:58:29;100121.31;;;31.98;57.91
42433;BME280;28071;48.232;20.668;2023-08-21T09:03:29;100129.84;;;32.33;56.23
42433;BME280;28071;48.232;20.668;2023-08-21T09:08:30;100112.91;;;32.75;53.91
42433;BME280;28071;48.232;20.668;2023-08-21T09:13:31;100121.59;;;33.05;54.66
42433;BME280;28071;48.232;20.668;2023-08-21T09:18:34;100113.94;;;33.30;55.28
42433;BME280;28071;48.232;20.668;2023-08-21T09:23:34;100119.13;;;33.47;53.94
42433;BME280;28071;48.232;20.668;2023-08-21T09:28:35;100118.13;;;33.55;54.32
42433;BME280;28071;48.232;20.668;2023-08-21T09:33:35;100107.03;;;33.87;53.76
42433;BME280;28071;48.232;20.668;2023-08-21T09:38:38;100081.41;;;32.88;56.06
42433;BME280;28071;48.232;20.668;2023-08-21T09:43:42;100096.22;;;33.62;55.27
42433;BME280;28071;48.232;20.668;2023-08-21T09:48:45;100091.69;;;34.25;53.81
42433;BME280;28071;48.232;20.668;2023-08-21T09:53:50;100097.34;;;34.51;48.21
42433;BME280;28071;48.232;20.668;2023-08-21T09:58:50;100087.34;;;34.85;44.88
42433;BME280;28071;48.232;20.668;2023-08-21T10:03:54;100073.19;;;35.13;43.58
42433;BME280;28071;48.232;20.668;2023-08-21T10:08:56;100093.97;;;35.79;42.44
42433;BME280;28071;48.232;20.668;2023-08-21T10:13:56;100086.31;;;35.96;40.46
42433;BME280;28071;48.232;20.668;2023-08-21T10:19:03;100056.81;;;35.27;40.03
42433;BME280;28071;48.232;20.668;2023-08-21T10:24:06;100069.28;;;35.94;38.93
42433;BME280;28071;48.232;20.668;2023-08-21T10:29:06;100077.44;;;36.43;38.38
42433;BME280;28071;48.232;20.668;2023-08-21T10:34:09;100061.94;;;36.38;38.24
42433;BME280;28071;48.232;20.668;2023-08-21T10:39:17;100071.63;;;36.96;36.99
42433;BME280;28071;48.232;20.668;2023-08-21T10:44:34;100058.56;;;36.97;36.69
42433;BME280;28071;48.232;20.668;2023-08-21T10:49:34;100065.41;;;37.68;35.80
42433;BME280;28071;48.232;20.668;2023-08-21T10:54:46;100057.25;;;38.04;34.67
42433;BME280;28071;48.232;20.668;2023-08-21T11:00:07;100043.00;;;38.16;34.46
42433;BME280;28071;48.232;20.668;2023-08-21T11:05:12;100065.34;;;38.48;33.55
42433;BME280;28071;48.232;20.668;2023-08-21T11:10:15;100070.09;;;38.44;33.56
42433;BME280;28071;48.232;20.668;2023-08-21T11:15:16;100070.09;;;38.44;32.64
42433;BME280;28071;48.232;20.668;2023-08-21T11:20:17;100072.97;;;38.83;33.23
42433;BME280;28071;48.232;20.668;2023-08-21T11:25:18;100066.59;;;39.04;32.95
42433;BME280;28071;48.232;20.668;2023-08-21T11:30:18;100067.84;;;39.18;32.64
42433;BME280;28071;48.232;20.668;2023-08-21T11:35:19;100063.00;;;39.47;32.39
42433;BME280;28071;48.232;20.668;2023-08-21T11:40:19;100058.63;;;38.67;32.75
42433;BME280;28071;48.232;20.668;2023-08-21T11:45:20;100038.38;;;38.99;32.33
42433;BME280;28071;48.232;20.668;2023-08-21T11:50:22;100056.59;;;38.43;33.44
42433;BME280;28071;48.232;20.668;2023-08-21T11:55:22;100063.03;;;39.22;32.96
42433;BME280;28071;48.232;20.668;2023-08-21T12:00:29;100047.88;;;39.62;31.27
42433;BME280;28071;48.232;20.668;2023-08-21T12:05:30;100055.78;;;39.74;30.96
42433;BME280;28071;48.232;20.668;2023-08-21T12:10:30;100047.34;;;40.06;29.20
42433;BME280;28071;48.232;20.668;2023-08-21T12:15:31;100055.03;;;38.59;30.96
42433;BME280;28071;48.232;20.668;2023-08-21T12:20:31;100034.84;;;39.16;30.67
42433;BME280;28071;48.232;20.668;2023-08-21T12:25:32;100044.63;;;39.81;30.00
42433;BME280;28071;48.232;20.668;2023-08-21T12:30:33;100022.72;;;39.90;29.08
42433;BME280;28071;48.232;20.668;2023-08-21T12:35:33;100040.50;;;40.18;29.06
42433;BME280;28071;48.232;20.668;2023-08-21T12:40:34;100042.28;;;39.76;28.47
42433;BME280;28071;48.232;20.668;2023-08-21T12:45:36;100044.56;;;40.03;28.61
42433;BME280;28071;48.232;20.668;2023-08-21T12:50:36;100041.66;;;40.20;28.41
42433;BME280;28071;48.232;20.668;2023-08-21T12:55:36;100030.97;;;40.15;27.95
42433;BME280;28071;48.232;20.668;2023-08-21T13:00:37;100041.16;;;40.47;27.64
42433;BME280;28071;48.232;20.668;2023-08-21T13:05:38;100024.03;;;40.41;28.55
42433;BME280;28071;48.232;20.668;2023-08-21T13:10:39;100020.81;;;40.43;28.28
42433;BME280;28071;48.232;20.668;2023-08-21T13:15:40;100020.25;;;40.69;29.06
42433;BME280;28071;48.232;20.668;2023-08-21T13:20:44;100011.78;;;40.25;28.68
42433;BME280;28071;48.232;20.668;2023-08-21T13:25:44;100005.69;;;40.47;28.31
42433;BME280;28071;48.232;20.668;2023-08-21T13:30:45;100000.31;;;40.71;29.86
42433;BME280;28071;48.232;20.668;2023-08-21T13:35:45;99992.78;;;40.68;28.38
42433;BME280;28071;48.232;20.668;2023-08-21T13:40:46;99994.75;;;40.15;28.82
42433;BME280;28071;48.232;20.668;2023-08-21T13:45:46;99992.69;;;40.19;28.77
42433;BME280;28071;48.232;20.668;2023-08-21T13:50:47;99971.03;;;39.79;29.03
42433;BME280;28071;48.232;20.668;2023-08-21T13:55:48;99985.22;;;40.09;29.37
42433;BME280;28071;48.232;20.668;2023-08-21T14:00:48;99979.13;;;40.25;29.17
42433;BME280;28071;48.232;20.668;2023-08-21T14:05:48;99979.22;;;40.11;29.39
42433;BME280;28071;48.232;20.668;2023-08-21T14:10:49;99973.69;;;40.07;29.07
42433;BME280;28071;48.232;20.668;2023-08-21T14:15:49;99960.41;;;40.26;30.15
42433;BME280;28071;48.232;20.668;2023-08-21T14:20:50;99952.66;;;40.55;29.55
42433;BME280;28071;48.232;20.668;2023-08-21T14:25:50;99949.13;;;40.47;30.33
42433;BME280;28071;48.232;20.668;2023-08-21T14:30:52;99943.69;;;40.26;29.51
42433;BME280;28071;48.232;20.668;2023-08-21T14:35:53;99938.81;;;40.40;33.50
42433;BME280;28071;48.232;20.668;2023-08-21T14:40:53;99937.75;;;40.20;30.88
42433;BME280;28071;48.232;20.668;2023-08-21T14:45:54;99933.25;;;40.37;29.03
42433;BME280;28071;48.232;20.668;2023-08-21T14:50:54;99917.50;;;40.16;30.18
42433;BME280;28071;48.232;20.668;2023-08-21T14:55:55;99924.44;;;40.42;29.64
42433;BME280;28071;48.232;20.668;2023-08-21T15:00:55;99911.97;;;40.09;29.47
42433;BME280;28071;48.232;20.668;2023-08-21T15:05:56;99922.53;;;40.32;28.56
42433;BME280;28071;48.232;20.668;2023-08-21T15:10:56;99911.38;;;39.73;34.88
42433;BME280;28071;48.232;20.668;2023-08-21T15:15:57;99918.41;;;39.00;37.85
42433;BME280;28071;48.232;20.668;2023-08-21T15:20:57;99916.06;;;38.42;39.50
42433;BME280;28071;48.232;20.668;2023-08-21T15:25:58;99910.03;;;37.90;41.76
42433;BME280;28071;48.232;20.668;2023-08-21T15:30:58;99909.25;;;37.06;43.95
42433;BME280;28071;48.232;20.668;2023-08-21T15:35:59;99908.84;;;37.04;44.09
42433;BME280;28071;48.232;20.668;2023-08-21T15:40:59;99908.09;;;36.55;45.42
42433;BME280;28071;48.232;20.668;2023-08-21T15:46:03;99881.63;;;36.17;46.47
42433;BME280;28071;48.232;20.668;2023-08-21T15:51:04;99878.91;;;35.46;49.53
42433;BME280;28071;48.232;20.668;2023-08-21T15:56:05;99866.09;;;34.52;52.04
42433;BME280;28071;48.232;20.668;2023-08-21T16:01:05;99882.63;;;33.83;54.79
42433;BME280;28071;48.232;20.668;2023-08-21T16:06:06;99859.81;;;33.08;57.16
42433;BME280;28071;48.232;20.668;2023-08-21T16:11:07;99883.56;;;32.62;59.03
42433;BME280;28071;48.232;20.668;2023-08-21T16:16:07;99869.78;;;32.15;60.49
42433;BME280;28071;48.232;20.668;2023-08-21T16:21:08;99874.91;;;31.85;61.74
42433;BME280;28071;48.232;20.668;2023-08-21T16:26:08;99871.94;;;31.49;62.83
42433;BME280;28071;48.232;20.668;2023-08-21T16:31:08;99871.56;;;31.11;65.45
42433;BME280;28071;48.232;20.668;2023-08-21T16:36:09;99872.44;;;30.75;66.43
42433;BME280;28071;48.232;20.668;2023-08-21T16:41:09;99872.75;;;30.36;68.68
42433;BME280;28071;48.232;20.668;2023-08-21T16:46:10;99873.06;;;30.23;68.90
42433;BME280;28071;48.232;20.668;2023-08-21T16:51:10;99850.31;;;29.44;72.15
42433;BME280;28071;48.232;20.668;2023-08-21T16:56:11;99865.69;;;29.36;73.74
42433;BME280;28071;48.232;20.668;2023-08-21T17:01:11;99874.91;;;29.32;74.34
42433;BME280;28071;48.232;20.668;2023-08-21T17:06:12;99867.16;;;29.13;75.43
42433;BME280;28071;48.232;20.668;2023-08-21T17:11:12;99844.03;;;28.51;80.33
42433;BME280;28071;48.232;20.668;2023-08-21T17:16:13;99805.59;;;28.01;80.00
42433;BME280;28071;48.232;20.668;2023-08-21T17:21:13;99859.72;;;27.69;82.59
42433;BME280;28071;48.232;20.668;2023-08-21T17:26:13;99859.22;;;27.41;86.15
42433;BME280;28071;48.232;20.668;2023-08-21T17:31:14;99857.28;;;27.16;88.90
42433;BME280;28071;48.232;20.668;2023-08-21T17:36:15;99860.09;;;26.76;91.00
42433;BME280;28071;48.232;20.668;2023-08-21T17:41:15;99852.28;;;26.43;90.60
42433;BME280;28071;48.232;20.668;2023-08-21T17:46:16;99854.94;;;26.26;91.39
42433;BME280;28071;48.232;20.668;2023-08-21T17:51:17;99864.59;;;26.01;90.53
42433;BME280;28071;48.232;20.668;2023-08-21T17:56:17;99868.50;;;25.64;92.51
42433;BME280;28071;48.232;20.668;2023-08-21T18:01:18;99867.94;;;25.53;92.22
42433;BME280;28071;48.232;20.668;2023-08-21T18:06:18;99873.63;;;25.43;94.86
42433;BME280;28071;48.232;20.668;2023-08-21T18:11:21;99875.69;;;25.24;94.32
42433;BME280;28071;48.232;20.668;2023-08-21T18:16:22;99876.16;;;25.03;95.71
42433;BME280;28071;48.232;20.668;2023-08-21T18:21:22;99879.69;;;25.04;96.56
42433;BME280;28071;48.232;20.668;2023-08-21T18:26:23;99883.28;;;25.13;98.25
42433;BME280;28071;48.232;20.668;2023-08-21T18:31:24;99883.00;;;25.14;96.56
42433;BME280;28071;48.232;20.668;2023-08-21T18:36:25;99906.72;;;25.36;95.37
42433;BME280;28071;48.232;20.668;2023-08-21T18:41:26;99911.69;;;25.34;96.30
42433;BME280;28071;48.232;20.668;2023-08-21T18:46:27;99919.75;;;25.39;96.26
42433;BME280;28071;48.232;20.668;2023-08-21T18:51:28;99913.53;;;25.25;98.97
42433;BME280;28071;48.232;20.668;2023-08-21T18:56:28;99925.63;;;25.19;100.00
42433;BME280;28071;48.232;20.668;2023-08-21T19:01:29;99918.78;;;25.08;100.00
42433;BME280;28071;48.232;20.668;2023-08-21T19:06:29;99924.41;;;24.98;100.00
42433;BME280;28071;48.232;20.668;2023-08-21T19:11:30;99919.28;;;24.96;100.00
42433;BME280;28071;48.232;20.668;2023-08-21T19:16:30;99922.09;;;24.91;100.00
42433;BME280;28071;48.232;20.668;2023-08-21T19:21:30;99914.25;;;24.89;100.00
42433;BME280;28071;48.232;20.668;2023-08-21T19:26:31;99910.72;;;24.75;100.00
42433;BME280;28071;48.232;20.668;2023-08-21T19:31:31;99900.25;;;24.69;100.00
42433;BME280;28071;48.232;20.668;2023-08-21T19:36:31;99896.63;;;24.59;100.00
42433;BME280;28071;48.232;20.668;2023-08-21T19:41:32;99885.75;;;24.59;100.00
42433;BME280;28071;48.232;20.668;2023-08-21T19:46:33;99885.03;;;24.40;100.00
42433;BME280;28071;48.232;20.668;2023-08-21T19:51:33;99904.22;;;24.30;100.00
42433;BME280;28071;48.232;20.668;2023-08-21T19:56:34;99893.72;;;23.77;100.00
42433;BME280;28071;48.232;20.668;2023-08-21T20:01:34;99912.81;;;23.72;100.00
42433;BME280;28071;48.232;20.668;2023-08-21T20:06:36;99918.72;;;23.60;100.00
42433;BME280;28071;48.232;20.668;2023-08-21T20:11:36;99898.81;;;23.65;100.00
42433;BME280;28071;48.232;20.668;2023-08-21T20:16:37;99930.66;;;23.59;100.00
42433;BME280;28071;48.232;20.668;2023-08-21T20:21:37;99933.72;;;23.34;100.00
42433;BME280;28071;48.232;20.668;2023-08-21T20:26:38;99946.78;;;23.32;100.00
42433;BME280;28071;48.232;20.668;2023-08-21T20:31:38;99941.94;;;23.29;100.00
42433;BME280;28071;48.232;20.668;2023-08-21T20:36:39;99937.81;;;22.88;100.00
42433;BME280;28071;48.232;20.668;2023-08-21T20:41:39;99954.56;;;22.95;100.00
42433;BME280;28071;48.232;20.668;2023-08-21T20:46:39;99954.72;;;23.04;100.00
42433;BME280;28071;48.232;20.668;2023-08-21T20:51:40;99956.97;;;22.97;100.00
42433;BME280;28071;48.232;20.668;2023-08-21T20:56:40;99922.94;;;22.62;100.00
42433;BME280;28071;48.232;20.668;2023-08-21T21:01:41;99953.53;;;22.91;100.00
42433;BME280;28071;48.232;20.668;2023-08-21T21:06:41;99942.47;;;22.59;100.00
42433;BME280;28071;48.232;20.668;2023-08-21T21:11:43;99942.94;;;22.66;100.00
42433;BME280;28071;48.232;20.668;2023-08-21T21:16:43;99898.69;;;22.47;100.00
42433;BME280;28071;48.232;20.668;2023-08-21T21:21:44;99903.31;;;22.46;100.00
42433;BME280;28071;48.232;20.668;2023-08-21T21:26:44;99913.44;;;22.59;100.00
42433;BME280;28071;48.232;20.668;2023-08-21T21:31:44;99915.13;;;22.55;100.00
42433;BME280;28071;48.232;20.668;2023-08-21T21:36:45;99921.53;;;22.40;100.00
42433;BME280;28071;48.232;20.668;2023-08-21T21:41:46;99922.09;;;22.37;100.00
42433;BME280;28071;48.232;20.668;2023-08-21T21:46:46;99928.56;;;22.41;100.00
42433;BME280;28071;48.232;20.668;2023-08-21T21:51:47;99938.72;;;22.55;100.00
42433;BME280;28071;48.232;20.668;2023-08-21T21:56:47;99931.09;;;22.57;100.00
42433;BME280;28071;48.232;20.668;2023-08-21T22:01:47;99934.91;;;22.56;100.00
42433;BME280;28071;48.232;20.668;2023-08-21T22:06:48;99945.81;;;22.22;100.00
42433;BME280;28071;48.232;20.668;2023-08-21T22:11:48;99951.31;;;22.11;100.00
42433;BME280;28071;48.232;20.668;2023-08-21T22:16:49;99951.28;;;22.17;100.00
42433;BME280;28071;48.232;20.668;2023-08-21T22:21:49;99954.34;;;22.39;100.00
42433;BME280;28071;48.232;20.668;2023-08-21T22:26:50;99969.00;;;22.38;100.00
42433;BME280;28071;48.232;20.668;2023-08-21T22:31:50;99963.38;;;22.29;100.00
42433;BME280;28071;48.232;20.668;2023-08-21T22:36:50;99970.25;;;22.17;100.00
42433;BME280;28071;48.232;20.668;2023-08-21T22:41:52;99957.66;;;21.97;100.00
42433;BME280;28071;48.232;20.668;2023-08-21T22:46:52;99979.00;;;22.03;100.00
42433;BME280;28071;48.232;20.668;2023-08-21T22:51:53;99981.19;;;22.01;100.00
42433;BME280;28071;48.232;20.668;2023-08-21T22:56:53;99951.69;;;22.00;100.00
42433;BME280;28071;48.232;20.668;2023-08-21T23:01:53;99965.75;;;22.02;100.00
42433;BME280;28071;48.232;20.668;2023-08-21T23:06:54;99949.34;;;21.83;100.00
42433;BME280;28071;48.232;20.668;2023-08-21T23:11:55;99922.97;;;21.59;100.00
42433;BME280;28071;48.232;20.668;2023-08-21T23:16:56;99933.69;;;21.75;100.00
42433;BME280;28071;48.232;20.668;2023-08-21T23:21:56;99950.84;;;21.60;100.00
42433;BME280;28071;48.232;20.668;2023-08-21T23:26:56;99941.19;;;21.54;100.00
42433;BME280;28071;48.232;20.668;2023-08-21T23:31:57;99903.03;;;20.96;100.00
42433;BME280;28071;48.232;20.668;2023-08-21T23:36:58;99934.84;;;21.19;100.00
42433;BME280;28071;48.232;20.668;2023-08-21T23:41:58;99941.84;;;21.20;100.00
42433;BME280;28071;48.232;20.668;2023-08-21T23:46:58;99946.53;;;21.04;100.00
42433;BME280;28071;48.232;20.668;2023-08-21T23:51:59;99953.03;;;20.98;100.00
42433;BME280;28071;48.232;20.668;2023-08-21T23:56:59;99960.63;;;20.91;100.00
